sensor_id;sensor_type;location;lat;lon;timestamp;P1;durP1;ratioP1;P2;durP2;ratioP2
55312;SDS011;46892;45.668;11.756;2023-03-14T00:00:35;30.17;;;20.70;;
55312;SDS011;46892;45.668;11.756;2023-03-14T00:03:02;26.03;;;19.80;;
55312;SDS011;46892;45.668;11.756;2023-03-14T00:05:27;26.40;;;19.23;;
55312;SDS011;46892;45.668;11.756;2023-03-14T00:07:53;30.87;;;20.53;;
55312;SDS011;46892;45.668;11.756;2023-03-14T00:10:19;25.60;;;19.53;;
55312;SDS011;46892;45.668;11.756;2023-03-14T00:12:45;26.40;;;19.87;;
55312;SDS011;46892;45.668;11.756;2023-03-14T00:15:11;24.53;;;19.63;;
55312;SDS011;46892;45.668;11.756;2023-03-14T00:17:37;27.73;;;19.63;;
55312;SDS011;46892;45.668;11.756;2023-03-14T00:20:06;27.23;;;20.10;;
55312;SDS011;46892;45.668;11.756;2023-03-14T00:22:39;25.97;;;19.53;;
55312;SDS011;46892;45.668;11.756;2023-03-14T00:25:06;26.45;;;19.52;;
55312;SDS011;46892;45.668;11.756;2023-03-14T00:27:34;29.27;;;20.77;;
55312;SDS011;46892;45.668;11.756;2023-03-14T00:30:00;28.03;;;20.83;;
55312;SDS011;46892;45.668;11.756;2023-03-14T00:32:26;32.17;;;23.93;;
55312;SDS011;46892;45.668;11.756;2023-03-14T00:34:51;32.10;;;23.37;;
55312;SDS011;46892;45.668;11.756;2023-03-14T00:37:17;30.30;;;22.17;;
55312;SDS011;46892;45.668;11.756;2023-03-14T00:39:43;30.37;;;21.50;;
55312;SDS011;46892;45.668;11.756;2023-03-14T00:42:09;31.03;;;22.27;;
55312;SDS011;46892;45.668;11.756;2023-03-14T00:44:34;33.07;;;20.77;;
55312;SDS011;46892;45.668;11.756;2023-03-14T00:47:00;26.30;;;20.77;;
55312;SDS011;46892;45.668;11.756;2023-03-14T00:49:26;26.27;;;18.97;;
55312;SDS011;46892;45.668;11.756;2023-03-14T00:51:52;28.20;;;19.57;;
55312;SDS011;46892;45.668;11.756;2023-03-14T00:54:18;29.47;;;20.07;;
55312;SDS011;46892;45.668;11.756;2023-03-14T00:56:44;27.20;;;19.50;;
55312;SDS011;46892;45.668;11.756;2023-03-14T00:59:10;26.60;;;17.87;;
55312;SDS011;46892;45.668;11.756;2023-03-14T01:01:35;24.53;;;17.37;;
55312;SDS011;46892;45.668;11.756;2023-03-14T01:04:01;29.00;;;17.87;;
55312;SDS011;46892;45.668;11.756;2023-03-14T01:06:28;21.13;;;13.97;;
55312;SDS011;46892;45.668;11.756;2023-03-14T01:08:54;17.37;;;12.90;;
55312;SDS011;46892;45.668;11.756;2023-03-14T01:11:28;18.57;;;13.60;;
55312;SDS011;46892;45.668;11.756;2023-03-14T01:13:56;21.13;;;13.93;;
55312;SDS011;46892;45.668;11.756;2023-03-14T01:16:23;21.30;;;14.20;;
55312;SDS011;46892;45.668;11.756;2023-03-14T01:18:50;20.37;;;12.70;;
55312;SDS011;46892;45.668;11.756;2023-03-14T01:21:18;16.40;;;12.20;;
55312;SDS011;46892;45.668;11.756;2023-03-14T01:23:45;17.63;;;12.00;;
55312;SDS011;46892;45.668;11.756;2023-03-14T01:26:13;20.87;;;13.13;;
55312;SDS011;46892;45.668;11.756;2023-03-14T01:28:40;16.87;;;13.23;;
55312;SDS011;46892;45.668;11.756;2023-03-14T01:31:06;18.40;;;12.83;;
55312;SDS011;46892;45.668;11.756;2023-03-14T01:33:33;15.60;;;12.43;;
55312;SDS011;46892;45.668;11.756;2023-03-14T01:35:59;20.10;;;13.87;;
55312;SDS011;46892;45.668;11.756;2023-03-14T01:38:28;22.30;;;13.93;;
55312;SDS011;46892;45.668;11.756;2023-03-14T01:40:54;17.27;;;12.53;;
55312;SDS011;46892;45.668;11.756;2023-03-14T01:43:20;16.83;;;12.43;;
55312;SDS011;46892;45.668;11.756;2023-03-14T01:51:11;18.07;;;13.03;;
55312;SDS011;46892;45.668;11.756;2023-03-14T01:54:10;18.30;;;12.20;;
55312;SDS011;46892;45.668;11.756;2023-03-14T01:56:41;15.93;;;11.73;;
55312;SDS011;46892;45.668;11.756;2023-03-14T01:59:11;18.88;;;12.77;;
55312;SDS011;46892;45.668;11.756;2023-03-14T02:01:38;18.87;;;12.07;;
55312;SDS011;46892;45.668;11.756;2023-03-14T02:04:07;15.63;;;11.80;;
55312;SDS011;46892;45.668;11.756;2023-03-14T02:06:40;16.93;;;12.70;;
55312;SDS011;46892;45.668;11.756;2023-03-14T02:09:13;17.47;;;12.70;;
55312;SDS011;46892;45.668;11.756;2023-03-14T02:11:39;16.70;;;12.40;;
55312;SDS011;46892;45.668;11.756;2023-03-14T02:14:05;17.97;;;11.87;;
55312;SDS011;46892;45.668;11.756;2023-03-14T02:16:34;15.63;;;11.17;;
55312;SDS011;46892;45.668;11.756;2023-03-14T02:19:00;18.07;;;12.07;;
55312;SDS011;46892;45.668;11.756;2023-03-14T02:21:35;15.57;;;11.53;;
55312;SDS011;46892;45.668;11.756;2023-03-14T02:24:13;20.20;;;10.63;;
55312;SDS011;46892;45.668;11.756;2023-03-14T02:29:30;15.17;;;10.27;;
55312;SDS011;46892;45.668;11.756;2023-03-14T02:31:58;15.03;;;9.97;;
55312;SDS011;46892;45.668;11.756;2023-03-14T02:34:24;13.97;;;10.23;;
55312;SDS011;46892;45.668;11.756;2023-03-14T02:36:50;15.73;;;10.10;;
55312;SDS011;46892;45.668;11.756;2023-03-14T02:39:21;19.23;;;9.83;;
55312;SDS011;46892;45.668;11.756;2023-03-14T02:42:09;15.07;;;9.33;;
55312;SDS011;46892;45.668;11.756;2023-03-14T02:44:35;12.77;;;9.23;;
55312;SDS011;46892;45.668;11.756;2023-03-14T02:47:02;14.83;;;9.50;;
55312;SDS011;46892;45.668;11.756;2023-03-14T02:49:29;14.40;;;9.20;;
55312;SDS011;46892;45.668;11.756;2023-03-14T02:51:56;10.97;;;8.80;;
55312;SDS011;46892;45.668;11.756;2023-03-14T02:54:22;16.43;;;9.80;;
55312;SDS011;46892;45.668;11.756;2023-03-14T02:56:47;11.83;;;8.77;;
55312;SDS011;46892;45.668;11.756;2023-03-14T02:59:13;12.23;;;9.20;;
55312;SDS011;46892;45.668;11.756;2023-03-14T03:01:39;13.37;;;9.33;;
55312;SDS011;46892;45.668;11.756;2023-03-14T03:04:04;14.17;;;8.77;;
55312;SDS011;46892;45.668;11.756;2023-03-14T03:06:30;12.00;;;9.27;;
55312;SDS011;46892;45.668;11.756;2023-03-14T03:08:56;17.80;;;9.53;;
55312;SDS011;46892;45.668;11.756;2023-03-14T03:11:21;15.57;;;9.90;;
55312;SDS011;46892;45.668;11.756;2023-03-14T03:13:47;10.60;;;8.10;;
55312;SDS011;46892;45.668;11.756;2023-03-14T03:16:13;11.83;;;8.90;;
55312;SDS011;46892;45.668;11.756;2023-03-14T03:18:40;12.73;;;8.03;;
55312;SDS011;46892;45.668;11.756;2023-03-14T03:21:06;13.47;;;9.60;;
55312;SDS011;46892;45.668;11.756;2023-03-14T03:23:33;12.30;;;8.90;;
55312;SDS011;46892;45.668;11.756;2023-03-14T03:26:00;12.70;;;8.80;;
55312;SDS011;46892;45.668;11.756;2023-03-14T03:28:27;10.47;;;7.80;;
55312;SDS011;46892;45.668;11.756;2023-03-14T03:30:52;15.60;;;9.20;;
55312;SDS011;46892;45.668;11.756;2023-03-14T03:33:18;14.53;;;9.97;;
55312;SDS011;46892;45.668;11.756;2023-03-14T03:35:45;13.57;;;8.90;;
55312;SDS011;46892;45.668;11.756;2023-03-14T03:38:12;13.30;;;8.87;;
55312;SDS011;46892;45.668;11.756;2023-03-14T03:40:38;12.37;;;8.30;;
55312;SDS011;46892;45.668;11.756;2023-03-14T03:43:04;13.80;;;8.93;;
55312;SDS011;46892;45.668;11.756;2023-03-14T03:45:30;14.73;;;8.53;;
55312;SDS011;46892;45.668;11.756;2023-03-14T03:47:55;14.63;;;8.67;;
55312;SDS011;46892;45.668;11.756;2023-03-14T03:50:21;12.23;;;8.10;;
55312;SDS011;46892;45.668;11.756;2023-03-14T03:52:47;13.20;;;8.37;;
55312;SDS011;46892;45.668;11.756;2023-03-14T03:55:13;13.23;;;8.33;;
55312;SDS011;46892;45.668;11.756;2023-03-14T03:57:38;13.63;;;8.43;;
55312;SDS011;46892;45.668;11.756;2023-03-14T04:00:04;12.50;;;8.93;;
55312;SDS011;46892;45.668;11.756;2023-03-14T04:02:31;11.33;;;8.20;;
55312;SDS011;46892;45.668;11.756;2023-03-14T04:04:56;12.37;;;8.40;;
55312;SDS011;46892;45.668;11.756;2023-03-14T04:07:22;11.13;;;7.93;;
55312;SDS011;46892;45.668;11.756;2023-03-14T04:09:48;13.03;;;8.13;;
55312;SDS011;46892;45.668;11.756;2023-03-14T04:12:13;12.67;;;8.33;;
55312;SDS011;46892;45.668;11.756;2023-03-14T04:14:39;14.67;;;8.70;;
55312;SDS011;46892;45.668;11.756;2023-03-14T04:17:06;13.73;;;8.63;;
55312;SDS011;46892;45.668;11.756;2023-03-14T04:19:32;13.43;;;8.97;;
55312;SDS011;46892;45.668;11.756;2023-03-14T04:21:57;12.37;;;8.37;;
55312;SDS011;46892;45.668;11.756;2023-03-14T04:24:23;13.67;;;8.87;;
55312;SDS011;46892;45.668;11.756;2023-03-14T04:26:49;11.80;;;8.63;;
55312;SDS011;46892;45.668;11.756;2023-03-14T04:29:14;14.03;;;8.83;;
55312;SDS011;46892;45.668;11.756;2023-03-14T04:31:40;15.27;;;8.33;;
55312;SDS011;46892;45.668;11.756;2023-03-14T04:34:06;13.93;;;8.77;;
55312;SDS011;46892;45.668;11.756;2023-03-14T04:36:31;13.07;;;8.90;;
55312;SDS011;46892;45.668;11.756;2023-03-14T04:38:57;13.17;;;8.43;;
55312;SDS011;46892;45.668;11.756;2023-03-14T04:41:23;9.90;;;8.00;;
55312;SDS011;46892;45.668;11.756;2023-03-14T04:43:49;13.10;;;8.50;;
55312;SDS011;46892;45.668;11.756;2023-03-14T04:46:14;13.90;;;9.00;;
55312;SDS011;46892;45.668;11.756;2023-03-14T04:48:40;12.17;;;8.40;;
55312;SDS011;46892;45.668;11.756;2023-03-14T04:51:06;12.63;;;8.80;;
55312;SDS011;46892;45.668;11.756;2023-03-14T04:53:32;13.07;;;8.87;;
55312;SDS011;46892;45.668;11.756;2023-03-14T04:55:59;14.23;;;9.50;;
55312;SDS011;46892;45.668;11.756;2023-03-14T04:58:24;13.67;;;9.00;;
55312;SDS011;46892;45.668;11.756;2023-03-14T05:00:50;14.10;;;9.20;;
55312;SDS011;46892;45.668;11.756;2023-03-14T05:03:16;15.13;;;9.27;;
55312;SDS011;46892;45.668;11.756;2023-03-14T05:05:43;15.23;;;8.67;;
55312;SDS011;46892;45.668;11.756;2023-03-14T05:08:09;20.37;;;8.93;;
55312;SDS011;46892;45.668;11.756;2023-03-14T05:10:35;15.27;;;8.63;;
55312;SDS011;46892;45.668;11.756;2023-03-14T05:13:01;16.33;;;8.90;;
55312;SDS011;46892;45.668;11.756;2023-03-14T05:15:27;16.30;;;9.37;;
55312;SDS011;46892;45.668;11.756;2023-03-14T05:17:52;14.53;;;8.73;;
55312;SDS011;46892;45.668;11.756;2023-03-14T05:20:19;17.47;;;9.10;;
55312;SDS011;46892;45.668;11.756;2023-03-14T05:22:45;15.03;;;8.67;;
55312;SDS011;46892;45.668;11.756;2023-03-14T05:25:11;14.87;;;8.60;;
55312;SDS011;46892;45.668;11.756;2023-03-14T05:27:36;21.57;;;9.43;;
55312;SDS011;46892;45.668;11.756;2023-03-14T05:30:03;16.43;;;8.67;;
55312;SDS011;46892;45.668;11.756;2023-03-14T05:32:30;17.47;;;8.93;;
55312;SDS011;46892;45.668;11.756;2023-03-14T05:34:56;18.93;;;8.73;;
55312;SDS011;46892;45.668;11.756;2023-03-14T05:37:24;17.67;;;9.03;;
55312;SDS011;46892;45.668;11.756;2023-03-14T05:39:51;14.47;;;8.60;;
55312;SDS011;46892;45.668;11.756;2023-03-14T05:42:16;15.13;;;8.30;;
55312;SDS011;46892;45.668;11.756;2023-03-14T05:44:42;16.47;;;8.47;;
55312;SDS011;46892;45.668;11.756;2023-03-14T05:47:08;13.83;;;9.07;;
55312;SDS011;46892;45.668;11.756;2023-03-14T05:49:34;20.80;;;9.03;;
55312;SDS011;46892;45.668;11.756;2023-03-14T05:51:59;14.70;;;9.17;;
55312;SDS011;46892;45.668;11.756;2023-03-14T05:54:25;16.30;;;9.33;;
55312;SDS011;46892;45.668;11.756;2023-03-14T05:56:51;17.13;;;9.63;;
55312;SDS011;46892;45.668;11.756;2023-03-14T05:59:17;24.03;;;9.50;;
55312;SDS011;46892;45.668;11.756;2023-03-14T06:01:43;21.80;;;9.37;;
55312;SDS011;46892;45.668;11.756;2023-03-14T06:04:08;17.53;;;9.53;;
55312;SDS011;46892;45.668;11.756;2023-03-14T06:06:34;19.93;;;9.97;;
55312;SDS011;46892;45.668;11.756;2023-03-14T06:09:00;14.80;;;9.97;;
55312;SDS011;46892;45.668;11.756;2023-03-14T06:11:25;18.87;;;9.87;;
55312;SDS011;46892;45.668;11.756;2023-03-14T06:13:51;14.33;;;9.57;;
55312;SDS011;46892;45.668;11.756;2023-03-14T06:16:17;17.33;;;10.33;;
55312;SDS011;46892;45.668;11.756;2023-03-14T06:18:42;17.43;;;9.70;;
55312;SDS011;46892;45.668;11.756;2023-03-14T06:21:08;19.90;;;10.43;;
55312;SDS011;46892;45.668;11.756;2023-03-14T06:23:34;15.93;;;10.20;;
55312;SDS011;46892;45.668;11.756;2023-03-14T06:25:59;14.63;;;9.60;;
55312;SDS011;46892;45.668;11.756;2023-03-14T06:28:26;18.20;;;10.70;;
55312;SDS011;46892;45.668;11.756;2023-03-14T06:30:51;17.53;;;11.13;;
55312;SDS011;46892;45.668;11.756;2023-03-14T06:33:17;19.60;;;9.37;;
55312;SDS011;46892;45.668;11.756;2023-03-14T06:35:43;18.37;;;11.40;;
55312;SDS011;46892;45.668;11.756;2023-03-14T06:38:09;17.20;;;10.77;;
55312;SDS011;46892;45.668;11.756;2023-03-14T06:40:34;17.77;;;11.93;;
55312;SDS011;46892;45.668;11.756;2023-03-14T06:43:00;20.87;;;12.97;;
55312;SDS011;46892;45.668;11.756;2023-03-14T06:45:26;21.30;;;14.20;;
55312;SDS011;46892;45.668;11.756;2023-03-14T06:47:51;20.17;;;13.47;;
55312;SDS011;46892;45.668;11.756;2023-03-14T06:50:17;16.20;;;12.83;;
55312;SDS011;46892;45.668;11.756;2023-03-14T06:52:43;24.07;;;14.07;;
55312;SDS011;46892;45.668;11.756;2023-03-14T06:55:13;19.10;;;13.57;;
55312;SDS011;46892;45.668;11.756;2023-03-14T06:57:39;21.47;;;14.83;;
55312;SDS011;46892;45.668;11.756;2023-03-14T07:00:05;23.70;;;15.33;;
55312;SDS011;46892;45.668;11.756;2023-03-14T07:02:31;23.13;;;16.47;;
55312;SDS011;46892;45.668;11.756;2023-03-14T07:04:57;24.50;;;16.93;;
55312;SDS011;46892;45.668;11.756;2023-03-14T07:07:23;24.30;;;16.30;;
55312;SDS011;46892;45.668;11.756;2023-03-14T07:09:48;20.60;;;15.93;;
55312;SDS011;46892;45.668;11.756;2023-03-14T07:12:14;21.77;;;15.43;;
55312;SDS011;46892;45.668;11.756;2023-03-14T07:14:40;20.30;;;16.00;;
55312;SDS011;46892;45.668;11.756;2023-03-14T07:17:05;26.27;;;16.83;;
55312;SDS011;46892;45.668;11.756;2023-03-14T07:19:31;23.83;;;16.17;;
55312;SDS011;46892;45.668;11.756;2023-03-14T07:21:57;23.13;;;16.73;;
55312;SDS011;46892;45.668;11.756;2023-03-14T07:24:23;23.50;;;15.97;;
55312;SDS011;46892;45.668;11.756;2023-03-14T07:26:48;25.80;;;17.33;;
55312;SDS011;46892;45.668;11.756;2023-03-14T07:29:14;26.20;;;16.87;;
55312;SDS011;46892;45.668;11.756;2023-03-14T07:31:40;23.07;;;16.97;;
55312;SDS011;46892;45.668;11.756;2023-03-14T07:34:05;25.97;;;17.30;;
55312;SDS011;46892;45.668;11.756;2023-03-14T07:36:31;24.30;;;17.33;;
55312;SDS011;46892;45.668;11.756;2023-03-14T07:38:57;25.13;;;17.03;;
55312;SDS011;46892;45.668;11.756;2023-03-14T07:41:23;32.77;;;19.50;;
55312;SDS011;46892;45.668;11.756;2023-03-14T07:43:49;25.50;;;19.07;;
55312;SDS011;46892;45.668;11.756;2023-03-14T07:46:15;23.97;;;17.17;;
55312;SDS011;46892;45.668;11.756;2023-03-14T07:48:40;23.27;;;16.17;;
55312;SDS011;46892;45.668;11.756;2023-03-14T07:51:06;23.43;;;16.40;;
55312;SDS011;46892;45.668;11.756;2023-03-14T07:53:32;23.47;;;16.87;;
55312;SDS011;46892;45.668;11.756;2023-03-14T07:55:58;23.93;;;14.83;;
55312;SDS011;46892;45.668;11.756;2023-03-14T07:58:23;21.77;;;15.03;;
55312;SDS011;46892;45.668;11.756;2023-03-14T08:00:50;23.93;;;16.33;;
55312;SDS011;46892;45.668;11.756;2023-03-14T08:03:16;22.40;;;15.90;;
55312;SDS011;46892;45.668;11.756;2023-03-14T08:05:43;20.60;;;15.83;;
55312;SDS011;46892;45.668;11.756;2023-03-14T08:08:08;23.17;;;15.47;;
55312;SDS011;46892;45.668;11.756;2023-03-14T08:10:34;24.73;;;15.43;;
55312;SDS011;46892;45.668;11.756;2023-03-14T08:13:00;21.80;;;14.67;;
55312;SDS011;46892;45.668;11.756;2023-03-14T08:15:26;23.50;;;16.43;;
55312;SDS011;46892;45.668;11.756;2023-03-14T08:17:54;54.27;;;36.40;;
55312;SDS011;46892;45.668;11.756;2023-03-14T08:20:20;62.37;;;39.40;;
55312;SDS011;46892;45.668;11.756;2023-03-14T08:22:47;47.80;;;29.57;;
55312;SDS011;46892;45.668;11.756;2023-03-14T08:25:13;27.47;;;21.37;;
55312;SDS011;46892;45.668;11.756;2023-03-14T08:27:39;21.90;;;15.87;;
55312;SDS011;46892;45.668;11.756;2023-03-14T08:30:07;22.43;;;13.80;;
55312;SDS011;46892;45.668;11.756;2023-03-14T08:32:35;23.33;;;14.90;;
55312;SDS011;46892;45.668;11.756;2023-03-14T08:35:01;22.63;;;13.90;;
55312;SDS011;46892;45.668;11.756;2023-03-14T08:37:26;18.43;;;14.30;;
55312;SDS011;46892;45.668;11.756;2023-03-14T08:39:52;19.23;;;12.73;;
55312;SDS011;46892;45.668;11.756;2023-03-14T08:42:18;18.93;;;13.90;;
55312;SDS011;46892;45.668;11.756;2023-03-14T08:44:44;16.20;;;12.17;;
55312;SDS011;46892;45.668;11.756;2023-03-14T08:47:10;18.50;;;12.33;;
55312;SDS011;46892;45.668;11.756;2023-03-14T08:49:36;19.73;;;13.50;;
55312;SDS011;46892;45.668;11.756;2023-03-14T08:52:02;20.50;;;13.77;;
55312;SDS011;46892;45.668;11.756;2023-03-14T08:54:29;22.07;;;16.33;;
55312;SDS011;46892;45.668;11.756;2023-03-14T08:56:54;20.20;;;14.03;;
55312;SDS011;46892;45.668;11.756;2023-03-14T08:59:20;22.10;;;14.07;;
55312;SDS011;46892;45.668;11.756;2023-03-14T09:01:46;18.67;;;13.90;;
55312;SDS011;46892;45.668;11.756;2023-03-14T09:04:12;17.13;;;13.33;;
55312;SDS011;46892;45.668;11.756;2023-03-14T09:06:38;25.57;;;13.47;;
55312;SDS011;46892;45.668;11.756;2023-03-14T09:09:04;20.00;;;13.17;;
55312;SDS011;46892;45.668;11.756;2023-03-14T09:11:30;21.70;;;13.93;;
55312;SDS011;46892;45.668;11.756;2023-03-14T09:13:56;19.87;;;13.57;;
55312;SDS011;46892;45.668;11.756;2023-03-14T09:16:21;19.67;;;14.80;;
55312;SDS011;46892;45.668;11.756;2023-03-14T09:18:47;20.70;;;14.53;;
55312;SDS011;46892;45.668;11.756;2023-03-14T09:21:13;19.47;;;14.13;;
55312;SDS011;46892;45.668;11.756;2023-03-14T09:23:39;21.67;;;15.23;;
55312;SDS011;46892;45.668;11.756;2023-03-14T09:26:05;19.00;;;13.20;;
55312;SDS011;46892;45.668;11.756;2023-03-14T09:28:31;20.83;;;13.30;;
55312;SDS011;46892;45.668;11.756;2023-03-14T09:30:57;18.60;;;13.60;;
55312;SDS011;46892;45.668;11.756;2023-03-14T09:33:22;47.77;;;29.17;;
55312;SDS011;46892;45.668;11.756;2023-03-14T09:35:48;20.53;;;15.00;;
55312;SDS011;46892;45.668;11.756;2023-03-14T09:38:14;21.50;;;15.23;;
55312;SDS011;46892;45.668;11.756;2023-03-14T09:40:41;24.00;;;15.93;;
55312;SDS011;46892;45.668;11.756;2023-03-14T09:43:13;22.37;;;16.30;;
55312;SDS011;46892;45.668;11.756;2023-03-14T09:45:40;18.63;;;13.80;;
55312;SDS011;46892;45.668;11.756;2023-03-14T09:48:12;21.60;;;14.83;;
55312;SDS011;46892;45.668;11.756;2023-03-14T09:50:43;20.73;;;14.90;;
55312;SDS011;46892;45.668;11.756;2023-03-14T09:53:16;23.87;;;16.90;;
55312;SDS011;46892;45.668;11.756;2023-03-14T09:55:45;22.33;;;15.60;;
55312;SDS011;46892;45.668;11.756;2023-03-14T09:58:16;24.43;;;17.30;;
55312;SDS011;46892;45.668;11.756;2023-03-14T10:05:37;19.17;;;14.90;;
55312;SDS011;46892;45.668;11.756;2023-03-14T10:08:04;22.03;;;14.67;;
55312;SDS011;46892;45.668;11.756;2023-03-14T10:10:30;23.50;;;16.87;;
55312;SDS011;46892;45.668;11.756;2023-03-14T10:12:57;40.63;;;27.63;;
55312;SDS011;46892;45.668;11.756;2023-03-14T10:15:28;22.45;;;15.05;;
55312;SDS011;46892;45.668;11.756;2023-03-14T10:17:58;21.43;;;16.73;;
55312;SDS011;46892;45.668;11.756;2023-03-14T10:25:32;25.97;;;16.10;;
55312;SDS011;46892;45.668;11.756;2023-03-14T10:27:59;21.43;;;15.57;;
55312;SDS011;46892;45.668;11.756;2023-03-14T10:30:39;21.07;;;15.07;;
55312;SDS011;46892;45.668;11.756;2023-03-14T10:33:22;48.23;;;42.70;;
55312;SDS011;46892;45.668;11.756;2023-03-14T10:36:27;27.67;;;20.37;;
55312;SDS011;46892;45.668;11.756;2023-03-14T10:38:51;26.40;;;17.67;;
55312;SDS011;46892;45.668;11.756;2023-03-14T10:41:41;38.50;;;23.10;;
55312;SDS011;46892;45.668;11.756;2023-03-14T10:44:18;21.50;;;15.93;;
55312;SDS011;46892;45.668;11.756;2023-03-14T10:46:55;21.83;;;15.32;;
55312;SDS011;46892;45.668;11.756;2023-03-14T10:49:28;18.60;;;13.67;;
55312;SDS011;46892;45.668;11.756;2023-03-14T10:52:00;22.47;;;15.90;;
55312;SDS011;46892;45.668;11.756;2023-03-14T10:54:35;18.67;;;13.63;;
55312;SDS011;46892;45.668;11.756;2023-03-14T10:57:01;18.00;;;11.93;;
55312;SDS011;46892;45.668;11.756;2023-03-14T10:59:38;15.48;;;12.45;;
55312;SDS011;46892;45.668;11.756;2023-03-14T11:02:22;24.43;;;13.80;;
55312;SDS011;46892;45.668;11.756;2023-03-14T11:07:43;21.07;;;14.23;;
55312;SDS011;46892;45.668;11.756;2023-03-14T11:24:20;19.33;;;11.47;;
55312;SDS011;46892;45.668;11.756;2023-03-14T11:26:40;19.50;;;11.87;;
55312;SDS011;46892;45.668;11.756;2023-03-14T11:35:02;20.20;;;12.13;;
55312;SDS011;46892;45.668;11.756;2023-03-14T11:37:34;16.77;;;10.50;;
55312;SDS011;46892;45.668;11.756;2023-03-14T11:42:30;21.27;;;10.90;;
55312;SDS011;46892;45.668;11.756;2023-03-14T11:44:57;18.20;;;10.50;;
55312;SDS011;46892;45.668;11.756;2023-03-14T11:47:29;17.97;;;10.90;;
55312;SDS011;46892;45.668;11.756;2023-03-14T11:52:41;18.48;;;12.65;;
55312;SDS011;46892;45.668;11.756;2023-03-14T11:55:14;18.17;;;12.77;;
55312;SDS011;46892;45.668;11.756;2023-03-14T11:57:45;20.80;;;13.60;;
55312;SDS011;46892;45.668;11.756;2023-03-14T12:11:05;19.13;;;11.10;;
55312;SDS011;46892;45.668;11.756;2023-03-14T12:13:38;18.03;;;11.27;;
55312;SDS011;46892;45.668;11.756;2023-03-14T12:16:30;20.00;;;10.53;;
55312;SDS011;46892;45.668;11.756;2023-03-14T12:21:47;18.37;;;10.23;;
55312;SDS011;46892;45.668;11.756;2023-03-14T12:24:19;33.13;;;24.33;;
55312;SDS011;46892;45.668;11.756;2023-03-14T12:26:52;19.80;;;14.07;;
55312;SDS011;46892;45.668;11.756;2023-03-14T12:29:20;15.80;;;10.00;;
55312;SDS011;46892;45.668;11.756;2023-03-14T12:31:47;16.33;;;8.97;;
55312;SDS011;46892;45.668;11.756;2023-03-14T12:50:24;13.60;;;7.00;;
55312;SDS011;46892;45.668;11.756;2023-03-14T12:55:44;18.75;;;8.20;;
55312;SDS011;46892;45.668;11.756;2023-03-14T12:58:15;21.87;;;8.97;;
55312;SDS011;46892;45.668;11.756;2023-03-14T13:00:55;22.33;;;12.87;;
55312;SDS011;46892;45.668;11.756;2023-03-14T13:03:26;15.13;;;6.40;;
55312;SDS011;46892;45.668;11.756;2023-03-14T13:12:11;19.93;;;10.10;;
55312;SDS011;46892;45.668;11.756;2023-03-14T13:17:14;17.47;;;8.73;;
55312;SDS011;46892;45.668;11.756;2023-03-14T13:19:43;15.60;;;7.18;;
55312;SDS011;46892;45.668;11.756;2023-03-14T13:22:17;13.87;;;7.33;;
55312;SDS011;46892;45.668;11.756;2023-03-14T13:25:03;11.77;;;6.33;;
55312;SDS011;46892;45.668;11.756;2023-03-14T13:27:32;11.07;;;6.53;;
55312;SDS011;46892;45.668;11.756;2023-03-14T13:29:59;13.90;;;6.27;;
55312;SDS011;46892;45.668;11.756;2023-03-14T13:32:41;17.40;;;7.07;;
55312;SDS011;46892;45.668;11.756;2023-03-14T13:35:16;16.90;;;7.07;;
55312;SDS011;46892;45.668;11.756;2023-03-14T13:37:56;13.17;;;6.30;;
55312;SDS011;46892;45.668;11.756;2023-03-14T13:40:33;13.73;;;6.20;;
55312;SDS011;46892;45.668;11.756;2023-03-14T13:43:16;13.30;;;5.73;;
55312;SDS011;46892;45.668;11.756;2023-03-14T13:45:43;13.77;;;7.13;;
55312;SDS011;46892;45.668;11.756;2023-03-14T13:48:14;12.83;;;6.40;;
55312;SDS011;46892;45.668;11.756;2023-03-14T13:50:44;12.97;;;6.13;;
55312;SDS011;46892;45.668;11.756;2023-03-14T13:53:20;10.47;;;6.00;;
55312;SDS011;46892;45.668;11.756;2023-03-14T13:55:46;13.50;;;6.17;;
55312;SDS011;46892;45.668;11.756;2023-03-14T13:58:26;12.17;;;6.67;;
55312;SDS011;46892;45.668;11.756;2023-03-14T14:01:04;12.33;;;6.17;;
55312;SDS011;46892;45.668;11.756;2023-03-14T14:03:36;15.33;;;6.23;;
55312;SDS011;46892;45.668;11.756;2023-03-14T14:06:05;15.60;;;6.80;;
55312;SDS011;46892;45.668;11.756;2023-03-14T14:08:36;10.60;;;4.90;;
55312;SDS011;46892;45.668;11.756;2023-03-14T14:11:06;9.40;;;4.70;;
55312;SDS011;46892;45.668;11.756;2023-03-14T14:13:35;14.20;;;5.53;;
55312;SDS011;46892;45.668;11.756;2023-03-14T14:16:01;11.20;;;5.40;;
55312;SDS011;46892;45.668;11.756;2023-03-14T14:18:28;11.27;;;6.13;;
55312;SDS011;46892;45.668;11.756;2023-03-14T14:20:56;9.57;;;5.83;;
55312;SDS011;46892;45.668;11.756;2023-03-14T14:23:22;11.87;;;5.33;;
55312;SDS011;46892;45.668;11.756;2023-03-14T14:25:54;9.27;;;6.10;;
55312;SDS011;46892;45.668;11.756;2023-03-14T14:28:25;8.50;;;5.37;;
55312;SDS011;46892;45.668;11.756;2023-03-14T14:33:26;11.37;;;5.90;;
55312;SDS011;46892;45.668;11.756;2023-03-14T14:35:53;12.17;;;5.87;;
55312;SDS011;46892;45.668;11.756;2023-03-14T14:38:24;11.30;;;5.77;;
55312;SDS011;46892;45.668;11.756;2023-03-14T14:40:51;13.43;;;5.40;;
55312;SDS011;46892;45.668;11.756;2023-03-14T14:43:25;11.13;;;5.07;;
55312;SDS011;46892;45.668;11.756;2023-03-14T14:45:54;10.63;;;4.90;;
55312;SDS011;46892;45.668;11.756;2023-03-14T14:48:25;10.57;;;4.80;;
55312;SDS011;46892;45.668;11.756;2023-03-14T14:50:59;8.50;;;4.90;;
55312;SDS011;46892;45.668;11.756;2023-03-14T14:53:28;12.70;;;5.70;;
55312;SDS011;46892;45.668;11.756;2023-03-14T14:56:17;12.63;;;5.37;;
55312;SDS011;46892;45.668;11.756;2023-03-14T14:58:47;10.65;;;6.47;;
55312;SDS011;46892;45.668;11.756;2023-03-14T15:01:17;11.10;;;5.40;;
55312;SDS011;46892;45.668;11.756;2023-03-14T15:03:44;12.40;;;6.43;;
55312;SDS011;46892;45.668;11.756;2023-03-14T15:06:12;15.27;;;8.73;;
55312;SDS011;46892;45.668;11.756;2023-03-14T15:08:40;9.77;;;5.10;;
55312;SDS011;46892;45.668;11.756;2023-03-14T15:11:08;12.23;;;5.33;;
55312;SDS011;46892;45.668;11.756;2023-03-14T15:13:43;13.63;;;7.27;;
55312;SDS011;46892;45.668;11.756;2023-03-14T15:16:12;10.47;;;4.97;;
55312;SDS011;46892;45.668;11.756;2023-03-14T15:18:40;12.83;;;5.17;;
55312;SDS011;46892;45.668;11.756;2023-03-14T15:21:08;10.00;;;5.10;;
55312;SDS011;46892;45.668;11.756;2023-03-14T15:23:35;13.27;;;5.20;;
55312;SDS011;46892;45.668;11.756;2023-03-14T15:26:01;14.57;;;5.57;;
55312;SDS011;46892;45.668;11.756;2023-03-14T15:28:28;10.83;;;4.77;;
55312;SDS011;46892;45.668;11.756;2023-03-14T15:30:55;10.50;;;5.00;;
55312;SDS011;46892;45.668;11.756;2023-03-14T15:33:23;7.90;;;4.37;;
55312;SDS011;46892;45.668;11.756;2023-03-14T15:35:50;10.57;;;5.10;;
55312;SDS011;46892;45.668;11.756;2023-03-14T15:38:19;10.37;;;5.20;;
55312;SDS011;46892;45.668;11.756;2023-03-14T15:40:47;13.47;;;6.90;;
55312;SDS011;46892;45.668;11.756;2023-03-14T15:43:14;11.07;;;5.77;;
55312;SDS011;46892;45.668;11.756;2023-03-14T15:45:39;13.40;;;5.13;;
55312;SDS011;46892;45.668;11.756;2023-03-14T15:48:06;12.17;;;4.83;;
55312;SDS011;46892;45.668;11.756;2023-03-14T15:50:37;12.67;;;6.00;;